sensor_id;sensor_type;location;lat;lon;timestamp;P1;durP1;ratioP1;P2;durP2;ratioP2
30287;SDS011;17103;48.316;11.558;2022-11-02T00:00:52;4.13;;;3.03;;
30287;SDS011;17103;48.316;11.558;2022-11-02T00:03:18;5.88;;;2.67;;
30287;SDS011;17103;48.316;11.558;2022-11-02T00:05:44;6.07;;;2.88;;
30287;SDS011;17103;48.316;11.558;2022-11-02T00:08:10;4.53;;;2.60;;
30287;SDS011;17103;48.316;11.558;2022-11-02T00:10:35;5.20;;;2.80;;
30287;SDS011;17103;48.316;11.558;2022-11-02T00:13:01;7.03;;;2.58;;
30287;SDS011;17103;48.316;11.558;2022-11-02T00:15:28;4.93;;;3.10;;
30287;SDS011;17103;48.316;11.558;2022-11-02T00:18:01;6.10;;;2.78;;
30287;SDS011;17103;48.316;11.558;2022-11-02T00:22:56;3.80;;;2.22;;
30287;SDS011;17103;48.316;11.558;2022-11-02T00:25:25;4.13;;;2.97;;
30287;SDS011;17103;48.316;11.558;2022-11-02T00:27:52;4.32;;;3.05;;
30287;SDS011;17103;48.316;11.558;2022-11-02T00:30:18;4.45;;;2.35;;
30287;SDS011;17103;48.316;11.558;2022-11-02T00:32:43;4.20;;;2.53;;
30287;SDS011;17103;48.316;11.558;2022-11-02T00:35:09;7.60;;;2.78;;
30287;SDS011;17103;48.316;11.558;2022-11-02T00:37:35;4.45;;;2.50;;
30287;SDS011;17103;48.316;11.558;2022-11-02T00:40:01;6.13;;;2.25;;
30287;SDS011;17103;48.316;11.558;2022-11-02T00:42:26;3.42;;;2.53;;
30287;SDS011;17103;48.316;11.558;2022-11-02T00:44:52;4.53;;;2.70;;
30287;SDS011;17103;48.316;11.558;2022-11-02T00:47:18;4.68;;;2.70;;
30287;SDS011;17103;48.316;11.558;2022-11-02T00:49:44;4.45;;;2.75;;
30287;SDS011;17103;48.316;11.558;2022-11-02T00:52:11;5.53;;;2.60;;
30287;SDS011;17103;48.316;11.558;2022-11-02T00:54:37;4.97;;;2.70;;
30287;SDS011;17103;48.316;11.558;2022-11-02T00:57:04;4.65;;;2.42;;
30287;SDS011;17103;48.316;11.558;2022-11-02T00:59:30;5.28;;;2.33;;
30287;SDS011;17103;48.316;11.558;2022-11-02T01:01:56;4.05;;;2.40;;
30287;SDS011;17103;48.316;11.558;2022-11-02T01:04:21;4.95;;;2.72;;
30287;SDS011;17103;48.316;11.558;2022-11-02T01:06:47;5.57;;;2.50;;
30287;SDS011;17103;48.316;11.558;2022-11-02T01:09:13;5.10;;;2.83;;
30287;SDS011;17103;48.316;11.558;2022-11-02T01:11:40;4.85;;;2.80;;
30287;SDS011;17103;48.316;11.558;2022-11-02T01:14:06;8.07;;;3.33;;
30287;SDS011;17103;48.316;11.558;2022-11-02T01:16:32;4.70;;;2.53;;
30287;SDS011;17103;48.316;11.558;2022-11-02T01:18:58;4.50;;;2.67;;
30287;SDS011;17103;48.316;11.558;2022-11-02T01:21:24;4.95;;;2.85;;
30287;SDS011;17103;48.316;11.558;2022-11-02T01:23:50;5.13;;;2.90;;
30287;SDS011;17103;48.316;11.558;2022-11-02T01:26:16;5.80;;;3.30;;
30287;SDS011;17103;48.316;11.558;2022-11-02T01:28:42;3.90;;;2.47;;
30287;SDS011;17103;48.316;11.558;2022-11-02T01:31:09;5.90;;;2.80;;
30287;SDS011;17103;48.316;11.558;2022-11-02T01:33:35;4.72;;;2.47;;
30287;SDS011;17103;48.316;11.558;2022-11-02T01:36:03;5.88;;;2.72;;
30287;SDS011;17103;48.316;11.558;2022-11-02T01:38:30;4.70;;;2.53;;
30287;SDS011;17103;48.316;11.558;2022-11-02T01:40:56;5.22;;;2.47;;
30287;SDS011;17103;48.316;11.558;2022-11-02T01:43:26;4.97;;;2.50;;
30287;SDS011;17103;48.316;11.558;2022-11-02T01:45:55;4.90;;;2.90;;
30287;SDS011;17103;48.316;11.558;2022-11-02T01:48:30;3.50;;;2.78;;
30287;SDS011;17103;48.316;11.558;2022-11-02T01:50:58;3.73;;;2.40;;
30287;SDS011;17103;48.316;11.558;2022-11-02T01:53:26;4.47;;;2.40;;
30287;SDS011;17103;48.316;11.558;2022-11-02T01:55:53;4.70;;;2.38;;
30287;SDS011;17103;48.316;11.558;2022-11-02T01:58:20;3.15;;;2.20;;
30287;SDS011;17103;48.316;11.558;2022-11-02T02:00:46;3.35;;;2.20;;
30287;SDS011;17103;48.316;11.558;2022-11-02T02:03:15;3.30;;;2.33;;
30287;SDS011;17103;48.316;11.558;2022-11-02T02:05:47;3.70;;;2.55;;
30287;SDS011;17103;48.316;11.558;2022-11-02T02:08:18;4.47;;;2.67;;
30287;SDS011;17103;48.316;11.558;2022-11-02T02:10:46;6.60;;;2.50;;
30287;SDS011;17103;48.316;11.558;2022-11-02T02:13:11;4.28;;;2.67;;
30287;SDS011;17103;48.316;11.558;2022-11-02T02:18:16;5.10;;;2.25;;
30287;SDS011;17103;48.316;11.558;2022-11-02T02:29:18;4.25;;;1.77;;
30287;SDS011;17103;48.316;11.558;2022-11-02T02:34:46;5.35;;;2.15;;
30287;SDS011;17103;48.316;11.558;2022-11-02T02:37:18;3.45;;;1.92;;
30287;SDS011;17103;48.316;11.558;2022-11-02T02:40:43;2.25;;;1.88;;
30287;SDS011;17103;48.316;11.558;2022-11-02T02:42:52;2.83;;;2.00;;
30287;SDS011;17103;48.316;11.558;2022-11-02T02:45:28;5.35;;;2.80;;
30287;SDS011;17103;48.316;11.558;2022-11-02T02:48:22;3.88;;;2.50;;
30287;SDS011;17103;48.316;11.558;2022-11-02T02:50:49;2.78;;;2.35;;
30287;SDS011;17103;48.316;11.558;2022-11-02T02:53:24;2.42;;;1.67;;
30287;SDS011;17103;48.316;11.558;2022-11-02T02:56:00;2.38;;;1.52;;
30287;SDS011;17103;48.316;11.558;2022-11-02T02:58:29;2.53;;;1.80;;
30287;SDS011;17103;48.316;11.558;2022-11-02T03:00:59;4.78;;;1.73;;
30287;SDS011;17103;48.316;11.558;2022-11-02T03:03:26;5.53;;;2.10;;
30287;SDS011;17103;48.316;11.558;2022-11-02T03:08:34;3.33;;;1.70;;
30287;SDS011;17103;48.316;11.558;2022-11-02T03:11:11;3.47;;;1.90;;
30287;SDS011;17103;48.316;11.558;2022-11-02T03:13:47;4.25;;;1.92;;
30287;SDS011;17103;48.316;11.558;2022-11-02T03:16:26;3.17;;;1.95;;
30287;SDS011;17103;48.316;11.558;2022-11-02T03:21:40;3.30;;;1.98;;
30287;SDS011;17103;48.316;11.558;2022-11-02T03:24:11;5.18;;;1.90;;
30287;SDS011;17103;48.316;11.558;2022-11-02T03:29:25;3.42;;;1.85;;
30287;SDS011;17103;48.316;11.558;2022-11-02T03:32:06;3.80;;;1.98;;
30287;SDS011;17103;48.316;11.558;2022-11-02T03:34:42;2.47;;;2.03;;
30287;SDS011;17103;48.316;11.558;2022-11-02T03:37:14;3.15;;;1.75;;
30287;SDS011;17103;48.316;11.558;2022-11-02T03:39:47;2.65;;;1.77;;
30287;SDS011;17103;48.316;11.558;2022-11-02T03:42:20;3.17;;;1.75;;
30287;SDS011;17103;48.316;11.558;2022-11-02T03:44:51;4.28;;;1.83;;
30287;SDS011;17103;48.316;11.558;2022-11-02T03:47:22;3.00;;;1.92;;
30287;SDS011;17103;48.316;11.558;2022-11-02T03:49:50;3.72;;;1.98;;
30287;SDS011;17103;48.316;11.558;2022-11-02T03:52:20;2.83;;;1.75;;
30287;SDS011;17103;48.316;11.558;2022-11-02T03:57:32;3.10;;;2.20;;
30287;SDS011;17103;48.316;11.558;2022-11-02T04:00:14;3.25;;;1.77;;
30287;SDS011;17103;48.316;11.558;2022-11-02T04:02:44;4.90;;;1.85;;
30287;SDS011;17103;48.316;11.558;2022-11-02T04:07:41;2.22;;;1.30;;
30287;SDS011;17103;48.316;11.558;2022-11-02T04:10:29;2.67;;;1.77;;
30287;SDS011;17103;48.316;11.558;2022-11-02T04:12:55;4.90;;;2.20;;
30287;SDS011;17103;48.316;11.558;2022-11-02T04:15:39;3.58;;;1.90;;
30287;SDS011;17103;48.316;11.558;2022-11-02T04:18:05;2.22;;;1.50;;
30287;SDS011;17103;48.316;11.558;2022-11-02T04:20:49;2.72;;;1.40;;
30287;SDS011;17103;48.316;11.558;2022-11-02T04:23:15;3.78;;;1.75;;
30287;SDS011;17103;48.316;11.558;2022-11-02T04:25:59;5.93;;;1.30;;
30287;SDS011;17103;48.316;11.558;2022-11-02T04:28:27;2.38;;;1.55;;
30287;SDS011;17103;48.316;11.558;2022-11-02T04:30:53;2.80;;;1.38;;
30287;SDS011;17103;48.316;11.558;2022-11-02T04:33:19;3.45;;;1.50;;
30287;SDS011;17103;48.316;11.558;2022-11-02T04:36:03;2.40;;;1.05;;
30287;SDS011;17103;48.316;11.558;2022-11-02T04:38:31;2.45;;;1.27;;
30287;SDS011;17103;48.316;11.558;2022-11-02T04:41:10;2.65;;;1.27;;
30287;SDS011;17103;48.316;11.558;2022-11-02T04:43:59;4.15;;;1.63;;
30287;SDS011;17103;48.316;11.558;2022-11-02T04:46:25;3.10;;;1.65;;
30287;SDS011;17103;48.316;11.558;2022-11-02T04:48:52;2.90;;;1.50;;
30287;SDS011;17103;48.316;11.558;2022-11-02T04:51:18;2.90;;;1.38;;
30287;SDS011;17103;48.316;11.558;2022-11-02T04:53:46;2.85;;;1.40;;
30287;SDS011;17103;48.316;11.558;2022-11-02T04:56:12;1.83;;;1.42;;
30287;SDS011;17103;48.316;11.558;2022-11-02T04:58:38;3.65;;;1.60;;
30287;SDS011;17103;48.316;11.558;2022-11-02T05:01:04;5.28;;;1.70;;
30287;SDS011;17103;48.316;11.558;2022-11-02T05:03:31;5.10;;;2.20;;
30287;SDS011;17103;48.316;11.558;2022-11-02T05:05:56;4.18;;;1.95;;
30287;SDS011;17103;48.316;11.558;2022-11-02T05:08:22;4.40;;;2.38;;
30287;SDS011;17103;48.316;11.558;2022-11-02T05:10:48;3.90;;;2.60;;
30287;SDS011;17103;48.316;11.558;2022-11-02T05:13:14;6.50;;;1.83;;
30287;SDS011;17103;48.316;11.558;2022-11-02T05:15:40;3.65;;;1.77;;
30287;SDS011;17103;48.316;11.558;2022-11-02T05:18:06;2.67;;;1.52;;
30287;SDS011;17103;48.316;11.558;2022-11-02T05:20:31;6.68;;;1.60;;
30287;SDS011;17103;48.316;11.558;2022-11-02T05:22:57;4.57;;;1.85;;
30287;SDS011;17103;48.316;11.558;2022-11-02T05:25:23;3.25;;;1.77;;
30287;SDS011;17103;48.316;11.558;2022-11-02T05:27:48;3.03;;;2.10;;
30287;SDS011;17103;48.316;11.558;2022-11-02T05:30:15;6.88;;;2.00;;
30287;SDS011;17103;48.316;11.558;2022-11-02T05:32:40;3.95;;;2.30;;
30287;SDS011;17103;48.316;11.558;2022-11-02T05:35:06;2.75;;;1.60;;
30287;SDS011;17103;48.316;11.558;2022-11-02T05:37:32;3.67;;;1.80;;
30287;SDS011;17103;48.316;11.558;2022-11-02T05:39:59;8.55;;;3.33;;
30287;SDS011;17103;48.316;11.558;2022-11-02T05:42:24;8.90;;;5.50;;
30287;SDS011;17103;48.316;11.558;2022-11-02T05:44:50;10.75;;;7.07;;
30287;SDS011;17103;48.316;11.558;2022-11-02T05:47:16;16.15;;;10.07;;
30287;SDS011;17103;48.316;11.558;2022-11-02T05:49:41;13.23;;;8.05;;
30287;SDS011;17103;48.316;11.558;2022-11-02T05:52:07;9.80;;;7.15;;
30287;SDS011;17103;48.316;11.558;2022-11-02T05:54:33;10.38;;;6.15;;
30287;SDS011;17103;48.316;11.558;2022-11-02T05:56:58;8.02;;;5.35;;
30287;SDS011;17103;48.316;11.558;2022-11-02T05:59:24;6.72;;;3.65;;
30287;SDS011;17103;48.316;11.558;2022-11-02T06:01:49;4.82;;;3.25;;
30287;SDS011;17103;48.316;11.558;2022-11-02T06:04:15;5.55;;;3.63;;
30287;SDS011;17103;48.316;11.558;2022-11-02T06:06:41;7.55;;;2.90;;
30287;SDS011;17103;48.316;11.558;2022-11-02T06:09:07;2.70;;;2.03;;
30287;SDS011;17103;48.316;11.558;2022-11-02T06:11:33;4.20;;;2.10;;
30287;SDS011;17103;48.316;11.558;2022-11-02T06:13:59;6.20;;;2.28;;
30287;SDS011;17103;48.316;11.558;2022-11-02T06:16:26;4.80;;;1.95;;
30287;SDS011;17103;48.316;11.558;2022-11-02T06:18:52;3.08;;;1.60;;
30287;SDS011;17103;48.316;11.558;2022-11-02T06:21:17;2.67;;;1.70;;
30287;SDS011;17103;48.316;11.558;2022-11-02T06:23:47;3.78;;;2.10;;
30287;SDS011;17103;48.316;11.558;2022-11-02T06:26:14;3.67;;;1.80;;
30287;SDS011;17103;48.316;11.558;2022-11-02T06:28:40;3.30;;;1.88;;
30287;SDS011;17103;48.316;11.558;2022-11-02T06:31:06;3.70;;;1.77;;
30287;SDS011;17103;48.316;11.558;2022-11-02T06:33:31;4.45;;;2.33;;
30287;SDS011;17103;48.316;11.558;2022-11-02T06:35:58;3.75;;;2.00;;
30287;SDS011;17103;48.316;11.558;2022-11-02T06:38:24;5.35;;;2.97;;
30287;SDS011;17103;48.316;11.558;2022-11-02T06:40:53;3.95;;;2.13;;
30287;SDS011;17103;48.316;11.558;2022-11-02T06:43:32;4.65;;;2.10;;
30287;SDS011;17103;48.316;11.558;2022-11-02T06:45:58;5.82;;;2.30;;
30287;SDS011;17103;48.316;11.558;2022-11-02T06:48:26;7.50;;;2.45;;
30287;SDS011;17103;48.316;11.558;2022-11-02T06:50:52;6.90;;;2.20;;
30287;SDS011;17103;48.316;11.558;2022-11-02T06:53:17;7.20;;;3.30;;
30287;SDS011;17103;48.316;11.558;2022-11-02T06:55:43;4.00;;;2.10;;
30287;SDS011;17103;48.316;11.558;2022-11-02T06:58:09;6.40;;;2.20;;
30287;SDS011;17103;48.316;11.558;2022-11-02T07:00:34;7.22;;;2.60;;
30287;SDS011;17103;48.316;11.558;2022-11-02T07:03:01;5.50;;;2.33;;
30287;SDS011;17103;48.316;11.558;2022-11-02T07:05:28;4.28;;;2.20;;
30287;SDS011;17103;48.316;11.558;2022-11-02T07:07:54;5.38;;;2.50;;
30287;SDS011;17103;48.316;11.558;2022-11-02T07:10:21;4.95;;;2.80;;
30287;SDS011;17103;48.316;11.558;2022-11-02T07:12:46;5.07;;;2.55;;
30287;SDS011;17103;48.316;11.558;2022-11-02T07:15:15;4.82;;;2.50;;
30287;SDS011;17103;48.316;11.558;2022-11-02T07:17:41;5.32;;;2.95;;
30287;SDS011;17103;48.316;11.558;2022-11-02T07:20:08;6.90;;;2.83;;
30287;SDS011;17103;48.316;11.558;2022-11-02T07:22:36;8.95;;;3.03;;
30287;SDS011;17103;48.316;11.558;2022-11-02T07:25:02;5.93;;;3.13;;
30287;SDS011;17103;48.316;11.558;2022-11-02T07:27:28;8.45;;;3.05;;
30287;SDS011;17103;48.316;11.558;2022-11-02T07:29:54;6.25;;;2.97;;
30287;SDS011;17103;48.316;11.558;2022-11-02T07:32:19;3.70;;;2.72;;
30287;SDS011;17103;48.316;11.558;2022-11-02T07:34:45;3.33;;;2.47;;
30287;SDS011;17103;48.316;11.558;2022-11-02T07:37:11;5.10;;;3.17;;
30287;SDS011;17103;48.316;11.558;2022-11-02T07:39:38;3.75;;;2.63;;
30287;SDS011;17103;48.316;11.558;2022-11-02T07:42:03;6.15;;;2.65;;
30287;SDS011;17103;48.316;11.558;2022-11-02T07:44:31;6.97;;;2.97;;
30287;SDS011;17103;48.316;11.558;2022-11-02T07:46:57;6.70;;;3.00;;
30287;SDS011;17103;48.316;11.558;2022-11-02T07:49:23;4.88;;;2.38;;
30287;SDS011;17103;48.316;11.558;2022-11-02T07:51:49;8.38;;;3.00;;
30287;SDS011;17103;48.316;11.558;2022-11-02T07:54:15;3.45;;;2.30;;
30287;SDS011;17103;48.316;11.558;2022-11-02T07:56:40;4.78;;;2.75;;
30287;SDS011;17103;48.316;11.558;2022-11-02T07:59:09;4.65;;;2.85;;
30287;SDS011;17103;48.316;11.558;2022-11-02T08:01:35;5.00;;;2.75;;
30287;SDS011;17103;48.316;11.558;2022-11-02T08:04:00;8.75;;;2.63;;
30287;SDS011;17103;48.316;11.558;2022-11-02T08:06:26;5.13;;;2.70;;
30287;SDS011;17103;48.316;11.558;2022-11-02T08:08:52;3.88;;;2.30;;
30287;SDS011;17103;48.316;11.558;2022-11-02T08:11:17;6.85;;;3.40;;
30287;SDS011;17103;48.316;11.558;2022-11-02T08:13:43;6.70;;;3.35;;
30287;SDS011;17103;48.316;11.558;2022-11-02T08:16:09;6.88;;;2.83;;
30287;SDS011;17103;48.316;11.558;2022-11-02T08:18:35;4.68;;;2.25;;
30287;SDS011;17103;48.316;11.558;2022-11-02T08:21:01;6.63;;;2.70;;
30287;SDS011;17103;48.316;11.558;2022-11-02T08:23:27;5.07;;;2.78;;
30287;SDS011;17103;48.316;11.558;2022-11-02T08:25:53;6.32;;;2.53;;
30287;SDS011;17103;48.316;11.558;2022-11-02T08:28:20;5.07;;;2.38;;
30287;SDS011;17103;48.316;11.558;2022-11-02T08:30:48;6.22;;;2.95;;
30287;SDS011;17103;48.316;11.558;2022-11-02T08:33:14;10.65;;;2.50;;
30287;SDS011;17103;48.316;11.558;2022-11-02T08:35:42;4.35;;;2.78;;
30287;SDS011;17103;48.316;11.558;2022-11-02T08:38:09;5.28;;;2.50;;
30287;SDS011;17103;48.316;11.558;2022-11-02T08:40:35;6.72;;;2.80;;
30287;SDS011;17103;48.316;11.558;2022-11-02T08:43:02;5.80;;;2.42;;
30287;SDS011;17103;48.316;11.558;2022-11-02T08:45:31;4.10;;;2.55;;
30287;SDS011;17103;48.316;11.558;2022-11-02T08:47:58;5.03;;;2.40;;
30287;SDS011;17103;48.316;11.558;2022-11-02T08:50:24;4.32;;;2.92;;
30287;SDS011;17103;48.316;11.558;2022-11-02T08:52:51;6.22;;;2.75;;
30287;SDS011;17103;48.316;11.558;2022-11-02T08:55:16;6.05;;;2.28;;
30287;SDS011;17103;48.316;11.558;2022-11-02T08:57:46;6.18;;;2.80;;
30287;SDS011;17103;48.316;11.558;2022-11-02T09:00:13;5.03;;;2.30;;
30287;SDS011;17103;48.316;11.558;2022-11-02T09:02:43;3.80;;;2.17;;
30287;SDS011;17103;48.316;11.558;2022-11-02T09:05:09;5.13;;;2.22;;
30287;SDS011;17103;48.316;11.558;2022-11-02T09:07:35;6.88;;;2.80;;
30287;SDS011;17103;48.316;11.558;2022-11-02T09:10:01;6.53;;;2.30;;
30287;SDS011;17103;48.316;11.558;2022-11-02T09:12:28;14.13;;;3.33;;
30287;SDS011;17103;48.316;11.558;2022-11-02T09:14:53;10.07;;;2.83;;
30287;SDS011;17103;48.316;11.558;2022-11-02T09:17:19;6.47;;;2.20;;
30287;SDS011;17103;48.316;11.558;2022-11-02T09:19:44;3.38;;;1.55;;
30287;SDS011;17103;48.316;11.558;2022-11-02T09:22:10;5.78;;;2.17;;
30287;SDS011;17103;48.316;11.558;2022-11-02T09:24:36;4.78;;;1.58;;
30287;SDS011;17103;48.316;11.558;2022-11-02T09:27:01;4.88;;;1.88;;
30287;SDS011;17103;48.316;11.558;2022-11-02T09:29:27;6.07;;;2.08;;
30287;SDS011;17103;48.316;11.558;2022-11-02T09:31:53;5.40;;;1.63;;
30287;SDS011;17103;48.316;11.558;2022-11-02T09:34:18;4.47;;;1.30;;
30287;SDS011;17103;48.316;11.558;2022-11-02T09:36:44;3.50;;;1.20;;
30287;SDS011;17103;48.316;11.558;2022-11-02T09:39:10;4.80;;;1.38;;
30287;SDS011;17103;48.316;11.558;2022-11-02T09:41:36;2.47;;;1.45;;
30287;SDS011;17103;48.316;11.558;2022-11-02T09:44:18;5.13;;;1.27;;
30287;SDS011;17103;48.316;11.558;2022-11-02T09:46:51;7.20;;;1.65;;
30287;SDS011;17103;48.316;11.558;2022-11-02T09:49:18;6.00;;;2.00;;
30287;SDS011;17103;48.316;11.558;2022-11-02T09:56:49;2.53;;;0.95;;
30287;SDS011;17103;48.316;11.558;2022-11-02T09:59:19;7.80;;;1.48;;
30287;SDS011;17103;48.316;11.558;2022-11-02T10:15:48;5.70;;;2.28;;
30287;SDS011;17103;48.316;11.558;2022-11-02T10:18:19;5.07;;;1.30;;
30287;SDS011;17103;48.316;11.558;2022-11-02T10:20:56;2.47;;;0.80;;
30287;SDS011;17103;48.316;11.558;2022-11-02T10:23:24;3.97;;;1.53;;
30287;SDS011;17103;48.316;11.558;2022-11-02T10:26:00;5.35;;;1.30;;
30287;SDS011;17103;48.316;11.558;2022-11-02T10:28:35;4.72;;;1.20;;
30287;SDS011;17103;48.316;11.558;2022-11-02T10:31:14;3.55;;;0.80;;
30287;SDS011;17103;48.316;11.558;2022-11-02T10:33:47;3.17;;;1.10;;
30287;SDS011;17103;48.316;11.558;2022-11-02T10:39:11;10.50;;;1.65;;
30287;SDS011;17103;48.316;11.558;2022-11-02T10:47:23;4.18;;;1.23;;
30287;SDS011;17103;48.316;11.558;2022-11-02T10:52:54;17.38;;;2.58;;
30287;SDS011;17103;48.316;11.558;2022-11-02T10:55:26;8.43;;;0.85;;
30287;SDS011;17103;48.316;11.558;2022-11-02T10:58:05;3.85;;;0.88;;
30287;SDS011;17103;48.316;11.558;2022-11-02T11:00:35;4.57;;;0.70;;
30287;SDS011;17103;48.316;11.558;2022-11-02T11:05:30;1.48;;;0.60;;
30287;SDS011;17103;48.316;11.558;2022-11-02T11:07:58;2.58;;;0.95;;
30287;SDS011;17103;48.316;11.558;2022-11-02T11:10:24;3.38;;;0.65;;
30287;SDS011;17103;48.316;11.558;2022-11-02T11:12:53;3.35;;;1.00;;
30287;SDS011;17103;48.316;11.558;2022-11-02T11:15:41;4.13;;;0.80;;
30287;SDS011;17103;48.316;11.558;2022-11-02T11:18:10;3.00;;;1.08;;
30287;SDS011;17103;48.316;11.558;2022-11-02T11:20:38;3.50;;;0.50;;
30287;SDS011;17103;48.316;11.558;2022-11-02T11:26:01;4.32;;;0.73;;
30287;SDS011;17103;48.316;11.558;2022-11-02T11:28:38;5.25;;;1.10;;
30287;SDS011;17103;48.316;11.558;2022-11-02T11:33:50;1.83;;;0.75;;
30287;SDS011;17103;48.316;11.558;2022-11-02T11:38:59;7.47;;;0.90;;
30287;SDS011;17103;48.316;11.558;2022-11-02T11:41:30;2.00;;;0.52;;
30287;SDS011;17103;48.316;11.558;2022-11-02T11:43:58;6.68;;;1.23;;
30287;SDS011;17103;48.316;11.558;2022-11-02T11:46:47;3.42;;;0.68;;
30287;SDS011;17103;48.316;11.558;2022-11-02T11:49:17;2.30;;;0.45;;
30287;SDS011;17103;48.316;11.558;2022-11-02T11:51:46;4.43;;;0.40;;
30287;SDS011;17103;48.316;11.558;2022-11-02T11:54:22;5.60;;;0.77;;
30287;SDS011;17103;48.316;11.558;2022-11-02T11:56:52;5.25;;;0.55;;
30287;SDS011;17103;48.316;11.558;2022-11-02T11:59:43;6.45;;;0.68;;
30287;SDS011;17103;48.316;11.558;2022-11-02T12:04:56;7.47;;;0.93;;
30287;SDS011;17103;48.316;11.558;2022-11-02T12:07:38;3.85;;;0.50;;
30287;SDS011;17103;48.316;11.558;2022-11-02T12:10:30;4.47;;;0.80;;
30287;SDS011;17103;48.316;11.558;2022-11-02T12:24:46;2.28;;;0.45;;
30287;SDS011;17103;48.316;11.558;2022-11-02T12:30:47;2.70;;;0.60;;
30287;SDS011;17103;48.316;11.558;2022-11-02T12:39:11;1.20;;;0.30;;
30287;SDS011;17103;48.316;11.558;2022-11-02T12:41:57;3.17;;;0.52;;
30287;SDS011;17103;48.316;11.558;2022-11-02T12:55:17;3.28;;;0.20;;
30287;SDS011;17103;48.316;11.558;2022-11-02T12:57:48;2.15;;;0.40;;
30287;SDS011;17103;48.316;11.558;2022-11-02T13:00:19;1.85;;;0.30;;
30287;SDS011;17103;48.316;11.558;2022-11-02T13:03:01;0.88;;;0.80;;
30287;SDS011;17103;48.316;11.558;2022-11-02T13:05:38;1.58;;;0.30;;
30287;SDS011;17103;48.316;11.558;2022-11-02T13:10:44;2.25;;;0.40;;
30287;SDS011;17103;48.316;11.558;2022-11-02T13:13:42;0.70;;;0.30;;
30287;SDS011;17103;48.316;11.558;2022-11-02T13:16:12;3.22;;;0.57;;
30287;SDS011;17103;48.316;11.558;2022-11-02T13:18:42;3.95;;;0.68;;
30287;SDS011;17103;48.316;11.558;2022-11-02T13:21:12;2.15;;;0.60;;
30287;SDS011;17103;48.316;11.558;2022-11-02T13:23:54;2.42;;;0.40;;
30287;SDS011;17103;48.316;11.558;2022-11-02T13:26:33;3.55;;;0.45;;
30287;SDS011;17103;48.316;11.558;2022-11-02T13:31:59;2.05;;;1.08;;
30287;SDS011;17103;48.316;11.558;2022-11-02T13:34:33;2.53;;;0.80;;
30287;SDS011;17103;48.316;11.558;2022-11-02T13:37:21;2.05;;;0.50;;
30287;SDS011;17103;48.316;11.558;2022-11-02T13:40:14;2.47;;;0.50;;
30287;SDS011;17103;48.316;11.558;2022-11-02T13:42:53;1.40;;;0.40;;
30287;SDS011;17103;48.316;11.558;2022-11-02T13:51:16;4.65;;;1.17;;
30287;SDS011;17103;48.316;11.558;2022-11-02T13:53:53;1.25;;;0.60;;
30287;SDS011;17103;48.316;11.558;2022-11-02T13:56:24;2.58;;;0.80;;
30287;SDS011;17103;48.316;11.558;2022-11-02T13:58:53;4.80;;;1.20;;
30287;SDS011;17103;48.316;11.558;2022-11-02T14:01:22;1.90;;;0.90;;
30287;SDS011;17103;48.316;11.558;2022-11-02T14:03:52;3.85;;;1.90;;
30287;SDS011;17103;48.316;11.558;2022-11-02T14:06:25;6.93;;;3.40;;
30287;SDS011;17103;48.316;11.558;2022-11-02T14:08:55;4.93;;;2.25;;
30287;SDS011;17103;48.316;11.558;2022-11-02T14:11:46;4.40;;;1.92;;
30287;SDS011;17103;48.316;11.558;2022-11-02T14:14:19;1.85;;;0.88;;
30287;SDS011;17103;48.316;11.558;2022-11-02T14:21:43;3.35;;;0.52;;
30287;SDS011;17103;48.316;11.558;2022-11-02T14:26:58;1.90;;;0.55;;
30287;SDS011;17103;48.316;11.558;2022-11-02T14:35:06;2.25;;;0.60;;
30287;SDS011;17103;48.316;11.558;2022-11-02T14:38:10;4.95;;;1.50;;
30287;SDS011;17103;48.316;11.558;2022-11-02T14:49:04;2.22;;;0.50;;
30287;SDS011;17103;48.316;11.558;2022-11-02T14:51:39;4.25;;;0.93;;
30287;SDS011;17103;48.316;11.558;2022-11-02T14:54:15;1.98;;;0.40;;
30287;SDS011;17103;48.316;11.558;2022-11-02T14:59:14;1.60;;;0.60;;
30287;SDS011;17103;48.316;11.558;2022-11-02T15:01:53;2.28;;;0.38;;
30287;SDS011;17103;48.316;11.558;2022-11-02T15:04:46;1.50;;;0.40;;
30287;SDS011;17103;48.316;11.558;2022-11-02T15:07:17;4.03;;;0.60;;
30287;SDS011;17103;48.316;11.558;2022-11-02T15:09:52;1.83;;;0.52;;
30287;SDS011;17103;48.316;11.558;2022-11-02T15:20:28;1.63;;;0.30;;
30287;SDS011;17103;48.316;11.558;2022-11-02T15:23:18;0.93;;;0.50;;
30287;SDS011;17103;48.316;11.558;2022-11-02T15:25:46;3.83;;;1.15;;
30287;SDS011;17103;48.316;11.558;2022-11-02T15:28:16;3.22;;;0.40;;
30287;SDS011;17103;48.316;11.558;2022-11-02T15:30:48;3.83;;;1.10;;
30287;SDS011;17103;48.316;11.558;2022-11-02T15:35:54;3.20;;;1.10;;
30287;SDS011;17103;48.316;11.558;2022-11-02T15:38:21;1.98;;;0.57;;
30287;SDS011;17103;48.316;11.558;2022-11-02T15:40:55;3.78;;;1.10;;
30287;SDS011;17103;48.316;11.558;2022-11-02T15:52:29;3.03;;;2.00;;
30287;SDS011;17103;48.316;11.558;2022-11-02T16:01:25;5.45;;;3.10;;
30287;SDS011;17103;48.316;11.558;2022-11-02T16:03:52;7.22;;;3.50;;
30287;SDS011;17103;48.316;11.558;2022-11-02T16:06:27;8.90;;;3.10;;
30287;SDS011;17103;48.316;11.558;2022-11-02T16:09:01;13.35;;;6.63;;
30287;SDS011;17103;48.316;11.558;2022-11-02T16:11:59;11.38;;;6.88;;
30287;SDS011;17103;48.316;11.558;2022-11-02T16:14:35;9.27;;;4.57;;
30287;SDS011;17103;48.316;11.558;2022-11-02T16:17:00;11.25;;;5.75;;
30287;SDS011;17103;48.316;11.558;2022-11-02T16:19:26;9.63;;;5.47;;
30287;SDS011;17103;48.316;11.558;2022-11-02T16:21:52;10.57;;;4.72;;
30287;SDS011;17103;48.316;11.558;2022-11-02T16:24:17;10.77;;;4.88;;
30287;SDS011;17103;48.316;11.558;2022-11-02T16:26:44;8.25;;;4.97;;
30287;SDS011;17103;48.316;11.558;2022-11-02T16:29:25;7.82;;;4.35;;
30287;SDS011;17103;48.316;11.558;2022-11-02T16:34:25;6.32;;;3.35;;
30287;SDS011;17103;48.316;11.558;2022-11-02T16:36:55;7.22;;;2.88;;
30287;SDS011;17103;48.316;11.558;2022-11-02T16:39:32;9.13;;;2.47;;
30287;SDS011;17103;48.316;11.558;2022-11-02T16:42:05;7.75;;;2.58;;
30287;SDS011;17103;48.316;11.558;2022-11-02T16:44:34;5.40;;;2.15;;
30287;SDS011;17103;48.316;11.558;2022-11-02T16:49:32;4.23;;;1.37;;
30287;SDS011;17103;48.316;11.558;2022-11-02T16:52:04;8.32;;;1.00;;
30287;SDS011;17103;48.316;11.558;2022-11-02T16:54:41;6.28;;;1.00;;
30287;SDS011;17103;48.316;11.558;2022-11-02T16:59:37;3.22;;;0.80;;
30287;SDS011;17103;48.316;11.558;2022-11-02T17:02:23;2.97;;;1.20;;
30287;SDS011;17103;48.316;11.558;2022-11-02T17:04:54;10.00;;;2.17;;
30287;SDS011;17103;48.316;11.558;2022-11-02T17:07:40;3.75;;;1.60;;
30287;SDS011;17103;48.316;11.558;2022-11-02T17:12:48;5.72;;;1.90;;
30287;SDS011;17103;48.316;11.558;2022-11-02T17:15:18;5.28;;;1.58;;
30287;SDS011;17103;48.316;11.558;2022-11-02T17:17:46;2.05;;;1.30;;
30287;SDS011;17103;48.316;11.558;2022-11-02T17:22:48;2.13;;;0.85;;
30287;SDS011;17103;48.316;11.558;2022-11-02T17:25:23;4.50;;;0.95;;
30287;SDS011;17103;48.316;11.558;2022-11-02T17:27:57;3.85;;;1.10;;
30287;SDS011;17103;48.316;11.558;2022-11-02T17:35:52;3.75;;;1.05;;
30287;SDS011;17103;48.316;11.558;2022-11-02T17:38:23;2.92;;;0.60;;
30287;SDS011;17103;48.316;11.558;2022-11-02T17:40:50;7.10;;;1.70;;
30287;SDS011;17103;48.316;11.558;2022-11-02T17:43:17;2.45;;;1.08;;
30287;SDS011;17103;48.316;11.558;2022-11-02T17:45:44;7.65;;;1.50;;
30287;SDS011;17103;48.316;11.558;2022-11-02T17:48:11;4.50;;;1.23;;
30287;SDS011;17103;48.316;11.558;2022-11-02T17:50:37;1.73;;;1.15;;
30287;SDS011;17103;48.316;11.558;2022-11-02T17:53:10;2.70;;;1.00;;
30287;SDS011;17103;48.316;11.558;2022-11-02T17:55:37;1.98;;;1.00;;